Rind — 5BHR2 — position and weather

sailwx.info

Track history (hours):
 
Tides and Currents Weather Stations Pressure Air Temp Water Temp Dewpoint Dewpoint Depression Visibility Wind Speed Wind Dir Waves Ship Positions

Rind

Last reported at 2017-Sep-20 03:12 UTC. Time now 2017-Sep-25 19:09 UTC.
Position N 37°22' E 024°01'.

Length 57 m; draft 2.5 m.

Type: . MMSI: 210258000.

Date/timePositionNaut miles runAvg speedWind from/ knotsBaromVisibWave heightAir tempDewpointWater temp
2017-Sep-20 03:12N 37°22' E 024°01'2 7.3
2017-Sep-20 02:56N 37°20' E 023°60'3 7.1
2017-Sep-20 02:31N 37°18' E 023°57'4 7.2
2017-Sep-20 02:01N 37°15' E 023°55'4 7.4
2017-Sep-20 01:30N 37°12' E 023°52'4 7.4
2017-Sep-20 00:59N 37°09' E 023°49'4 7.4
2017-Sep-20 00:31N 37°06' E 023°47'4 7.4
2017-Sep-20 00:00N 37°03' E 023°44'4 7.4
2017-Sep-19 23:31N 36°60' E 023°42'4 7.4
2017-Sep-19 23:00N 36°57' E 023°40'9 7.4
2017-Sep-19 21:46N 36°49' E 023°33'2 7.3
2017-Sep-19 21:30N 36°47' E 023°32'10 7.4
2017-Sep-19 20:06N 36°38' E 023°25'1 7.3
2017-Sep-19 19:59N 36°38' E 023°25'8 7.2
2017-Sep-19 18:52N 36°31' E 023°19'184 6.6
2017-Sep-18 15:00N 38°07' E 020°02'4 6.6
2017-Sep-18 14:28N 38°10' E 019°59'56 6.6
2017-Sep-18 06:02N 38°52' E 019°12'1 6.8
2017-Sep-18 05:56N 38°53' E 019°12'5 6.7
2017-Sep-18 05:13N 38°56' E 019°08'78 7.3
2017-Sep-17 18:32N 39°52' E 017°58'1 7.2
2017-Sep-17 18:20N 39°53' E 017°56'3 7.0
2017-Sep-17 17:59N 39°55' E 017°54'3 6.9
2017-Sep-17 17:30N 39°57' E 017°51'3 6.6
2017-Sep-17 17:00N 39°59' E 017°48'3 6.3
2017-Sep-17 16:31N 40°02' E 017°45'3 6.2
2017-Sep-17 16:00N 40°04' E 017°42'3 6.3
2017-Sep-17 15:29N 40°06' E 017°38'3 6.4
2017-Sep-17 15:01N 40°08' E 017°35'3 6.4
2017-Sep-17 14:30N 40°09' E 017°32'3 6.6
2017-Sep-17 14:00N 40°11' E 017°28'3 6.4
2017-Sep-17 13:30N 40°13' E 017°25'3 6.5
2017-Sep-17 13:00N 40°15' E 017°21'3 6.5
2017-Sep-17 12:30N 40°17' E 017°18'3 6.6
2017-Sep-17 12:01N 40°20' E 017°15'3 6.4
2017-Sep-17 11:30N 40°22' E 017°12'3 6.2
2017-Sep-17 11:00N 40°23' E 017°09'3 5.7
2017-Sep-17 10:31N 40°26' E 017°08'3 6.5
2017-Sep-17 10:00N 40°29' E 017°08'1 2.6
2017-Sep-17 09:28N 40°30' E 017°09'0 0.0
2017-Sep-17 08:58N 40°30' E 017°09'0 0.0
2017-Sep-17 08:28N 40°30' E 017°09'0 0.0
2017-Sep-17 07:58N 40°30' E 017°09'0 0.0
2017-Sep-17 07:28N 40°30' E 017°09'0 0.0
2017-Sep-17 06:58N 40°30' E 017°09'0 0.0
2017-Sep-17 06:28N 40°30' E 017°09'0 0.0
2017-Sep-17 05:58N 40°30' E 017°09'0 0.0
2017-Sep-17 05:28N 40°30' E 017°09'0 0.0
2017-Sep-17 04:58N 40°30' E 017°09'0 0.0
2017-Sep-17 04:28N 40°30' E 017°09'0 0.0
2017-Sep-17 03:58N 40°30' E 017°09'0 0.0
2017-Sep-17 03:28N 40°30' E 017°09'0 0.0
2017-Sep-17 02:58N 40°30' E 017°09'0 0.0
2017-Sep-17 02:28N 40°30' E 017°09'0 0.0
2017-Sep-17 01:58N 40°30' E 017°09'0 0.0
2017-Sep-17 01:28N 40°30' E 017°09'0 0.0
2017-Sep-17 00:58N 40°30' E 017°09'0 0.0
2017-Sep-17 00:28N 40°30' E 017°09'0 0.0
2017-Sep-16 23:58N 40°30' E 017°09'0 0.0
2017-Sep-16 23:28N 40°30' E 017°09'0 0.0
2017-Sep-16 22:58N 40°30' E 017°09'0 0.0
2017-Sep-16 22:28N 40°30' E 017°09'0 0.0
2017-Sep-16 21:58N 40°30' E 017°09'0 0.0
2017-Sep-16 21:28N 40°30' E 017°09'0 0.0
2017-Sep-16 20:58N 40°30' E 017°09'0 0.0
2017-Sep-16 20:28N 40°30' E 017°09'0 0.0
2017-Sep-16 19:58N 40°30' E 017°09'0 0.0
2017-Sep-16 19:28N 40°30' E 017°09'0 0.0
2017-Sep-16 18:58N 40°30' E 017°09'0 0.0
2017-Sep-16 18:28N 40°30' E 017°09'0 0.0
2017-Sep-16 17:58N 40°30' E 017°09'0 0.0
2017-Sep-16 17:28N 40°30' E 017°09'0 0.0
2017-Sep-16 16:58N 40°30' E 017°09'0 0.0
2017-Sep-16 16:28N 40°30' E 017°09'0 0.0
2017-Sep-16 15:58N 40°30' E 017°09'0 0.0
2017-Sep-16 15:28N 40°30' E 017°09'0 0.0
2017-Sep-16 14:58N 40°30' E 017°09'0 0.0
2017-Sep-16 14:28N 40°30' E 017°09'0 0.0
2017-Sep-16 13:58N 40°30' E 017°09'0 0.0
2017-Sep-16 13:28N 40°30' E 017°09'0 0.0
2017-Sep-16 12:58N 40°30' E 017°09'0 0.0
2017-Sep-16 12:28N 40°30' E 017°09'0 0.0
2017-Sep-16 11:58N 40°30' E 017°09'0 0.0
2017-Sep-16 11:28N 40°30' E 017°09'0 0.0
2017-Sep-16 10:58N 40°30' E 017°09'0 0.0
2017-Sep-16 10:28N 40°30' E 017°09'0 0.0
2017-Sep-16 09:58N 40°30' E 017°09'0 0.0
2017-Sep-16 09:31N 40°30' E 017°09'0 0.0
2017-Sep-16 09:01N 40°30' E 017°09'0 0.0
2017-Sep-16 08:31N 40°30' E 017°09'0 0.0
2017-Sep-16 08:00N 40°30' E 017°09'0 0.0
2017-Sep-16 07:30N 40°30' E 017°09'0 0.0
2017-Sep-16 07:00N 40°30' E 017°09'0 0.0
2017-Sep-16 06:30N 40°30' E 017°09'0 0.0
2017-Sep-16 06:00N 40°30' E 017°09'0 0.0
2017-Sep-16 05:30N 40°30' E 017°09'0 0.0
2017-Sep-16 05:00N 40°30' E 017°09'0 0.0
2017-Sep-16 04:30N 40°30' E 017°09'0 0.0
2017-Sep-16 04:00N 40°30' E 017°09'0 0.0
2017-Sep-16 03:30N 40°30' E 017°09'0 0.0
2017-Sep-16 03:00N 40°30' E 017°09'0 0.0
2017-Sep-16 02:30N 40°30' E 017°09'0 0.0
2017-Sep-16 02:00N 40°30' E 017°09'0 0.0
2017-Sep-16 01:30N 40°30' E 017°09'0 0.0
2017-Sep-16 01:00N 40°30' E 017°09'0 0.0
2017-Sep-16 00:30N 40°30' E 017°09'0 0.0
2017-Sep-16 00:00N 40°30' E 017°09'0 0.0
2017-Sep-15 23:30N 40°30' E 017°09'0 0.0
2017-Sep-15 23:00N 40°30' E 017°09'0 0.0
2017-Sep-15 22:30N 40°30' E 017°09'0 0.0
2017-Sep-15 22:00N 40°30' E 017°09'0 0.0
2017-Sep-15 21:30N 40°30' E 017°09'0 0.0
2017-Sep-15 21:00N 40°30' E 017°09'0 0.0
2017-Sep-15 20:30N 40°30' E 017°09'0 0.0
2017-Sep-15 20:00N 40°30' E 017°09'0 0.0
2017-Sep-15 19:30N 40°30' E 017°09'0 0.0
2017-Sep-15 19:00N 40°30' E 017°09'0 0.0
2017-Sep-15 18:30N 40°30' E 017°09'0 0.0
2017-Sep-15 18:00N 40°30' E 017°09'0 0.0
2017-Sep-15 17:30N 40°30' E 017°09'0 0.0
2017-Sep-15 17:00N 40°30' E 017°09'0 0.0
2017-Sep-15 16:30N 40°30' E 017°09'0 0.0
2017-Sep-15 16:00N 40°30' E 017°09'0 0.0
2017-Sep-15 15:30N 40°30' E 017°09'0 0.0
2017-Sep-15 15:00N 40°30' E 017°09'0 0.0
2017-Sep-15 14:30N 40°30' E 017°09'0 0.0
2017-Sep-15 14:00N 40°30' E 017°09'0 0.0
2017-Sep-15 13:30N 40°30' E 017°09'0 0.0
2017-Sep-15 13:00N 40°30' E 017°09'0 0.0
2017-Sep-15 12:30N 40°30' E 017°09'0 0.0
2017-Sep-15 12:00N 40°30' E 017°09'0 0.0
2017-Sep-15 11:30N 40°30' E 017°09'0 0.0
2017-Sep-15 11:00N 40°30' E 017°09'0 0.0
2017-Sep-15 10:30N 40°30' E 017°09'0 0.0
2017-Sep-15 10:00N 40°30' E 017°09'0 0.0
2017-Sep-15 09:30N 40°30' E 017°09'0 0.0
2017-Sep-15 09:00N 40°30' E 017°09'0 0.0
2017-Sep-15 08:30N 40°30' E 017°09'0 0.0
2017-Sep-15 08:00N 40°30' E 017°09'0 0.0
2017-Sep-15 07:30N 40°30' E 017°09'0 0.0
2017-Sep-15 07:00N 40°30' E 017°09'0 0.0
2017-Sep-15 06:30N 40°30' E 017°09'0 0.0
2017-Sep-15 06:00N 40°30' E 017°09'0 0.0
2017-Sep-15 05:30N 40°30' E 017°09'0 0.0
2017-Sep-15 05:00N 40°30' E 017°09'0 0.0
2017-Sep-15 04:30N 40°30' E 017°09'0 0.0
2017-Sep-15 04:00N 40°30' E 017°09'0 0.0
2017-Sep-15 03:30N 40°30' E 017°09'0 0.0
2017-Sep-15 03:00N 40°30' E 017°09'0 0.0
2017-Sep-15 02:30N 40°30' E 017°09'0 0.0
2017-Sep-15 02:00N 40°30' E 017°09'0 0.0
2017-Sep-15 01:30N 40°30' E 017°09'0 0.0
2017-Sep-15 01:00N 40°30' E 017°09'0 0.0
2017-Sep-15 00:29N 40°30' E 017°09'0 0.0
2017-Sep-14 23:59N 40°30' E 017°09'0 0.0
2017-Sep-14 23:29N 40°30' E 017°09'0 0.0
2017-Sep-14 23:00N 40°30' E 017°09'0 0.0
2017-Sep-14 22:29N 40°30' E 017°09'0 0.0
2017-Sep-14 21:59N 40°30' E 017°09'0 0.0
2017-Sep-14 21:29N 40°30' E 017°09'0 0.0
2017-Sep-14 20:59N 40°30' E 017°09'0 0.0
2017-Sep-14 20:29N 40°30' E 017°09'0 0.0
2017-Sep-14 19:59N 40°30' E 017°09'0 0.0
2017-Sep-14 19:29N 40°30' E 017°09'0 0.0
2017-Sep-14 18:59N 40°30' E 017°09'0 0.0
2017-Sep-14 18:29N 40°30' E 017°09'0 0.0
2017-Sep-14 17:59N 40°30' E 017°09'0 0.0
2017-Sep-14 17:23N 40°30' E 017°09'0 0.0
2017-Sep-14 16:59N 40°30' E 017°09'0 0.0
2017-Sep-14 16:29N 40°30' E 017°09'0 0.0
2017-Sep-14 15:59N 40°30' E 017°09'0 0.0
2017-Sep-14 15:29N 40°30' E 017°09'0 0.0
2017-Sep-14 14:59N 40°30' E 017°09'0 0.0
2017-Sep-14 14:29N 40°30' E 017°09'0 0.0
2017-Sep-14 13:59N 40°30' E 017°09'0 0.0
2017-Sep-14 13:29N 40°30' E 017°09'0 0.0
2017-Sep-14 12:59N 40°30' E 017°09'0 0.0
2017-Sep-14 12:29N 40°30' E 017°09'0 0.0
2017-Sep-14 11:59N 40°30' E 017°09'0 0.0
2017-Sep-14 11:29N 40°30' E 017°09'0 0.0
2017-Sep-14 10:50N 40°30' E 017°09'0 0.0
2017-Sep-14 10:29N 40°30' E 017°09'0 0.0
2017-Sep-14 09:56N 40°30' E 017°09'0 0.0
2017-Sep-14 09:29N 40°30' E 017°09'0 0.0
2017-Sep-14 08:59N 40°30' E 017°09'0 0.0
2017-Sep-14 08:29N 40°30' E 017°09'0 0.0
2017-Sep-14 07:59N 40°30' E 017°09'0 0.0
2017-Sep-14 07:29N 40°30' E 017°09'0 0.0
2017-Sep-14 06:59N 40°30' E 017°09'0 0.0
2017-Sep-14 06:29N 40°30' E 017°09'0 0.0
2017-Sep-14 05:59N 40°30' E 017°09'0 0.0
2017-Sep-14 05:29N 40°30' E 017°09'0 0.0
2017-Sep-14 04:59N 40°30' E 017°09'0 0.0
2017-Sep-14 04:29N 40°30' E 017°09'0 0.0
2017-Sep-14 03:59N 40°30' E 017°09'0 0.0
2017-Sep-14 03:29N 40°30' E 017°09'0 0.0
2017-Sep-14 02:59N 40°30' E 017°09'0 0.0
2017-Sep-14 02:29N 40°30' E 017°09'0 0.0
2017-Sep-14 01:59N 40°30' E 017°09'0 0.0
2017-Sep-14 01:29N 40°30' E 017°09'0 0.0
2017-Sep-14 00:59N 40°30' E 017°09'0 0.0
2017-Sep-14 00:29N 40°30' E 017°09'0 0.0
2017-Sep-13 23:59N 40°30' E 017°09'0 0.0
2017-Sep-13 23:29N 40°30' E 017°09'0 0.0
2017-Sep-13 22:59N 40°30' E 017°09'0 0.0
2017-Sep-13 22:29N 40°30' E 017°09'0 0.0
2017-Sep-13 21:59N 40°30' E 017°09'0 0.0
2017-Sep-13 21:29N 40°30' E 017°09'0 0.0
2017-Sep-13 20:59N 40°30' E 017°09'0 0.0
2017-Sep-13 20:29N 40°30' E 017°09'0 0.0
2017-Sep-13 19:59N 40°30' E 017°09'0 0.0
2017-Sep-13 19:29N 40°30' E 017°09'0 0.0
2017-Sep-13 18:59N 40°30' E 017°09'0 0.0
2017-Sep-13 18:29N 40°30' E 017°09'0 0.0
2017-Sep-13 17:59N 40°30' E 017°09'0 0.0
2017-Sep-13 17:29N 40°30' E 017°09'0 0.0
2017-Sep-13 16:59N 40°30' E 017°09'0 0.0
2017-Sep-13 16:29N 40°30' E 017°09'0 0.0
2017-Sep-13 15:59N 40°30' E 017°09'0 0.0
2017-Sep-13 15:28N 40°30' E 017°09'0 0.0
2017-Sep-13 14:58N 40°30' E 017°09'0 0.0
2017-Sep-13 14:28N 40°30' E 017°09'0 0.0
2017-Sep-13 13:58N 40°30' E 017°09'0 0.0
2017-Sep-13 13:28N 40°30' E 017°09'0 0.0
2017-Sep-13 12:58N 40°30' E 017°09'0 0.0
2017-Sep-13 12:28N 40°30' E 017°09'0 0.0
2017-Sep-13 11:58N 40°30' E 017°09'0 0.0
2017-Sep-13 11:28N 40°30' E 017°09'0 0.0
2017-Sep-13 10:58N 40°30' E 017°09'0 0.0
2017-Sep-13 10:28N 40°30' E 017°09'0 0.0
2017-Sep-13 09:58N 40°30' E 017°09'0 0.0
2017-Sep-13 09:28N 40°30' E 017°09'0 0.0
2017-Sep-13 08:58N 40°30' E 017°09'0 0.0
2017-Sep-13 08:28N 40°30' E 017°09'0 0.0
2017-Sep-13 07:58N 40°30' E 017°09'0 0.0
2017-Sep-13 07:28N 40°30' E 017°09'0 0.0
2017-Sep-13 06:58N 40°30' E 017°09'0 0.0
2017-Sep-13 06:28N 40°30' E 017°09'0 0.0
2017-Sep-13 05:58N 40°30' E 017°09'0 0.0
2017-Sep-13 05:28N 40°30' E 017°09'0 0.0
2017-Sep-13 04:55N 40°30' E 017°09'0 0.0
2017-Sep-13 04:28N 40°30' E 017°09'0 0.0
2017-Sep-13 03:58N 40°30' E 017°09'0 0.0
2017-Sep-13 03:28N 40°30' E 017°09'0 0.0
2017-Sep-13 02:55N 40°30' E 017°09'0 0.0
2017-Sep-13 02:28N 40°30' E 017°09'0 0.0
2017-Sep-13 01:58N 40°30' E 017°09'0 0.0
2017-Sep-13 01:28N 40°30' E 017°09'0 0.0
2017-Sep-13 00:58N 40°30' E 017°09'0 0.0
2017-Sep-13 00:19N 40°30' E 017°09'0 0.0
2017-Sep-12 23:58N 40°30' E 017°09'0 0.0
2017-Sep-12 23:25N 40°30' E 017°09'0 0.0
2017-Sep-12 22:49N 40°30' E 017°09'0 0.0
2017-Sep-12 22:28N 40°30' E 017°09'0 0.0
2017-Sep-12 21:40N 40°30' E 017°09'0 0.0
2017-Sep-12 20:34N 40°30' E 017°09'0 0.0
2017-Sep-12 20:13N 40°30' E 017°09'0 0.0
2017-Sep-12 19:58N 40°30' E 017°09'0 0.0
2017-Sep-12 19:19N 40°30' E 017°09'0 0.0
2017-Sep-12 18:46N 40°30' E 017°09'0 0.0
2017-Sep-12 18:28N 40°30' E 017°09'0 0.0
2017-Sep-12 16:25N 40°30' E 017°09'0 0.0
2017-Sep-12 14:25N 40°30' E 017°09'0 0.0
2017-Sep-12 13:43N 40°30' E 017°09'0 0.0
2017-Sep-12 13:25N 40°30' E 017°09'0 0.0
2017-Sep-12 12:55N 40°30' E 017°09'0 0.0
2017-Sep-12 12:25N 40°30' E 017°09'0 0.0
2017-Sep-12 11:55N 40°30' E 017°09'0 0.0
2017-Sep-12 11:25N 40°30' E 017°09'0 0.0
2017-Sep-12 10:55N 40°30' E 017°09'0 0.0
2017-Sep-12 10:28N 40°30' E 017°09'0 0.0
2017-Sep-12 09:52N 40°30' E 017°09'0 0.0
2017-Sep-12 09:25N 40°30' E 017°09'0 0.0
2017-Sep-12 08:55N 40°30' E 017°09'0 0.0
2017-Sep-12 08:31N 40°30' E 017°09'0 0.0
2017-Sep-12 08:01N 40°30' E 017°09'0 0.0
2017-Sep-12 07:30N 40°30' E 017°09'0 0.0
2017-Sep-12 07:00N 40°30' E 017°09'0 0.0
2017-Sep-12 06:30N 40°30' E 017°09'0 0.0
2017-Sep-12 06:01N 40°30' E 017°09'0 0.0
2017-Sep-12 05:30N 40°30' E 017°09'0 0.0
2017-Sep-12 05:00N 40°30' E 017°09'0 0.0
2017-Sep-12 04:30N 40°30' E 017°09'0 0.0
2017-Sep-12 04:00N 40°30' E 017°09'0 0.0
2017-Sep-12 03:30N 40°30' E 017°09'0 0.0
2017-Sep-12 03:00N 40°30' E 017°09'0 0.0
2017-Sep-12 02:30N 40°30' E 017°09'0 0.0
2017-Sep-12 02:00N 40°30' E 017°09'0 0.0
2017-Sep-12 01:30N 40°30' E 017°09'0 0.0
2017-Sep-12 01:00N 40°30' E 017°09'0 0.0
2017-Sep-12 00:30N 40°30' E 017°09'0 0.0
2017-Sep-12 00:00N 40°30' E 017°09'0 0.0
2017-Sep-11 23:30N 40°30' E 017°09'0 0.0
2017-Sep-11 22:57N 40°30' E 017°09'0 0.0
2017-Sep-11 22:24N 40°30' E 017°09'0 0.0
2017-Sep-11 22:00N 40°30' E 017°09'0 0.0
2017-Sep-11 21:30N 40°30' E 017°09'0 0.0
2017-Sep-11 21:00N 40°30' E 017°09'0 0.0
2017-Sep-11 20:24N 40°30' E 017°09'0 0.0
2017-Sep-11 19:54N 40°30' E 017°09'0 0.0
2017-Sep-11 19:30N 40°30' E 017°09'0 0.0
2017-Sep-11 19:00N 40°30' E 017°09'0 0.0
2017-Sep-11 18:27N 40°30' E 017°09'0 0.0
2017-Sep-11 17:51N 40°30' E 017°09'0 0.0
2017-Sep-11 17:24N 40°30' E 017°09'0 0.0
2017-Sep-11 16:54N 40°30' E 017°09'0 0.0
2017-Sep-11 16:30N 40°30' E 017°09'0 0.0
2017-Sep-11 16:00N 40°30' E 017°09'0 0.0
2017-Sep-11 15:30N 40°30' E 017°09'0 0.0
2017-Sep-11 15:00N 40°30' E 017°09'0 0.0
2017-Sep-11 14:24N 40°30' E 017°09'0 0.0
2017-Sep-11 14:00N 40°30' E 017°09'0 0.0
2017-Sep-11 13:24N 40°30' E 017°09'0 0.0
2017-Sep-11 13:00N 40°30' E 017°09'0 0.0
2017-Sep-11 12:30N 40°30' E 017°09'0 0.0
2017-Sep-11 12:00N 40°30' E 017°09'0 0.0
2017-Sep-11 11:30N 40°30' E 017°09'0 0.0
2017-Sep-11 11:00N 40°30' E 017°09'0 0.0
2017-Sep-11 10:30N 40°30' E 017°09'0 0.0
2017-Sep-11 10:00N 40°30' E 017°09'0 0.0
2017-Sep-11 09:30N 40°30' E 017°09'0 0.0
2017-Sep-11 09:00N 40°30' E 017°09'0 0.0
2017-Sep-11 08:30N 40°30' E 017°09'0 0.0
2017-Sep-11 08:00N 40°30' E 017°09'0 0.0
2017-Sep-11 07:30N 40°30' E 017°09'0 0.0
2017-Sep-11 07:00N 40°30' E 017°09'0 0.0
2017-Sep-11 06:30N 40°30' E 017°09'0 0.0
2017-Sep-11 06:00N 40°30' E 017°09'0 0.0
2017-Sep-11 05:30N 40°30' E 017°09'0 0.0
2017-Sep-11 05:00N 40°30' E 017°09'0 0.0
2017-Sep-11 04:30N 40°30' E 017°09'0 0.0
2017-Sep-11 03:57N 40°30' E 017°09'0 0.0
2017-Sep-11 03:30N 40°30' E 017°09'0 0.0
2017-Sep-11 03:00N 40°30' E 017°09'0 0.0
2017-Sep-11 02:30N 40°30' E 017°09'0 0.0
2017-Sep-11 01:57N 40°30' E 017°09'0 0.0
2017-Sep-11 01:30N 40°30' E 017°09'0 0.0
2017-Sep-11 01:00N 40°30' E 017°09'0 0.0
2017-Sep-11 00:30N 40°30' E 017°09'0 0.0
2017-Sep-11 00:00N 40°30' E 017°09'0 0.0
2017-Sep-10 23:30N 40°30' E 017°09'0 0.0
2017-Sep-10 22:59N 40°30' E 017°09'0 0.0
2017-Sep-10 22:29N 40°30' E 017°09'0 0.0
2017-Sep-10 21:59N 40°30' E 017°09'0 0.0
2017-Sep-10 21:29N 40°30' E 017°09'0 0.0
2017-Sep-10 20:59N 40°30' E 017°09'0 0.0
2017-Sep-10 20:29N 40°30' E 017°09'0 0.0
2017-Sep-10 19:59N 40°30' E 017°09'0 0.0
2017-Sep-10 19:29N 40°30' E 017°09'0 0.0
2017-Sep-10 18:59N 40°30' E 017°09'0 0.0
2017-Sep-10 18:26N 40°30' E 017°09'0 0.0
2017-Sep-10 17:59N 40°30' E 017°09'0 0.0
2017-Sep-10 17:29N 40°30' E 017°09'0 0.0
2017-Sep-10 16:59N 40°30' E 017°09'0 0.0
2017-Sep-10 16:29N 40°30' E 017°09'0 0.0
2017-Sep-10 15:59N 40°30' E 017°09'0 0.0
2017-Sep-10 15:29N 40°30' E 017°09'0 0.0
2017-Sep-10 14:59N 40°30' E 017°09'0 0.0
2017-Sep-10 13:59N 40°30' E 017°09'0 0.0
2017-Sep-10 13:29N 40°30' E 017°09'0 0.0
2017-Sep-10 12:59N 40°30' E 017°09'0 0.0
2017-Sep-10 12:29N 40°30' E 017°09'0 0.0
2017-Sep-10 11:59N 40°30' E 017°09'0 0.0
2017-Sep-10 11:29N 40°30' E 017°09'0 0.0
2017-Sep-10 10:59N 40°30' E 017°09'0 0.0
2017-Sep-10 10:29N 40°30' E 017°09'0 0.0
2017-Sep-10 09:59N 40°30' E 017°09'0 0.0
2017-Sep-10 09:29N 40°30' E 017°09'0 0.0
2017-Sep-10 08:59N 40°30' E 017°09'0 0.0
2017-Sep-10 08:29N 40°30' E 017°09'0 0.0
2017-Sep-10 07:59N 40°30' E 017°09'0 0.0
2017-Sep-10 07:29N 40°30' E 017°09'0 0.0
2017-Sep-10 06:59N 40°30' E 017°09'0 0.0
2017-Sep-10 06:29N 40°30' E 017°09'0 0.0
2017-Sep-10 05:59N 40°30' E 017°09'0 0.0
2017-Sep-10 05:29N 40°30' E 017°09'0 0.0
2017-Sep-10 04:59N 40°30' E 017°09'0 0.0
2017-Sep-10 04:29N 40°30' E 017°09'0 0.0
2017-Sep-10 03:59N 40°30' E 017°09'0 0.0
2017-Sep-10 03:29N 40°30' E 017°09'  
Track history (hours):
 
Tides and Currents Weather Stations Pressure Air Temp Water Temp Dewpoint Dewpoint Depression Visibility Wind Speed Wind Dir Waves Ship Positions

Rind

Last reported at 2017-Sep-20 03:12 UTC. Time now 2017-Sep-25 19:09 UTC.
Position N 37°22' E 024°01'.

Length 57 m; draft 2.5 m.

Type: . MMSI: 210258000.

Date/timePositionNaut miles runAvg speedWind from/ knotsBaromVisibWave heightAir tempDewpointWater temp
2017-Sep-20 03:12N 37°22' E 024°01'2 7.3
2017-Sep-20 02:56N 37°20' E 023°60'3 7.1
2017-Sep-20 02:31N 37°18' E 023°57'4 7.2
2017-Sep-20 02:01N 37°15' E 023°55'4 7.4
2017-Sep-20 01:30N 37°12' E 023°52'4 7.4
2017-Sep-20 00:59N 37°09' E 023°49'4 7.4
2017-Sep-20 00:31N 37°06' E 023°47'4 7.4
2017-Sep-20 00:00N 37°03' E 023°44'4 7.4
2017-Sep-19 23:31N 36°60' E 023°42'4 7.4
2017-Sep-19 23:00N 36°57' E 023°40'9 7.4
2017-Sep-19 21:46N 36°49' E 023°33'2 7.3
2017-Sep-19 21:30N 36°47' E 023°32'10 7.4
2017-Sep-19 20:06N 36°38' E 023°25'1 7.3
2017-Sep-19 19:59N 36°38' E 023°25'8 7.2
2017-Sep-19 18:52N 36°31' E 023°19'184 6.6
2017-Sep-18 15:00N 38°07' E 020°02'4 6.6
2017-Sep-18 14:28N 38°10' E 019°59'56 6.6
2017-Sep-18 06:02N 38°52' E 019°12'1 6.8
2017-Sep-18 05:56N 38°53' E 019°12'5 6.7
2017-Sep-18 05:13N 38°56' E 019°08'78 7.3
2017-Sep-17 18:32N 39°52' E 017°58'1 7.2
2017-Sep-17 18:20N 39°53' E 017°56'3 7.0
2017-Sep-17 17:59N 39°55' E 017°54'3 6.9
2017-Sep-17 17:30N 39°57' E 017°51'3 6.6
2017-Sep-17 17:00N 39°59' E 017°48'3 6.3
2017-Sep-17 16:31N 40°02' E 017°45'3 6.2
2017-Sep-17 16:00N 40°04' E 017°42'3 6.3
2017-Sep-17 15:29N 40°06' E 017°38'3 6.4
2017-Sep-17 15:01N 40°08' E 017°35'3 6.4
2017-Sep-17 14:30N 40°09' E 017°32'3 6.6
2017-Sep-17 14:00N 40°11' E 017°28'3 6.4
2017-Sep-17 13:30N 40°13' E 017°25'3 6.5
2017-Sep-17 13:00N 40°15' E 017°21'3 6.5
2017-Sep-17 12:30N 40°17' E 017°18'3 6.6
2017-Sep-17 12:01N 40°20' E 017°15'3 6.4
2017-Sep-17 11:30N 40°22' E 017°12'3 6.2
2017-Sep-17 11:00N 40°23' E 017°09'3 5.7
2017-Sep-17 10:31N 40°26' E 017°08'3 6.5
2017-Sep-17 10:00N 40°29' E 017°08'1 2.6
2017-Sep-17 09:28N 40°30' E 017°09'0 0.0
2017-Sep-17 08:58N 40°30' E 017°09'0 0.0
2017-Sep-17 08:28N 40°30' E 017°09'0 0.0
2017-Sep-17 07:58N 40°30' E 017°09'0 0.0
2017-Sep-17 07:28N 40°30' E 017°09'0 0.0
2017-Sep-17 06:58N 40°30' E 017°09'0 0.0
2017-Sep-17 06:28N 40°30' E 017°09'0 0.0
2017-Sep-17 05:58N 40°30' E 017°09'0 0.0
2017-Sep-17 05:28N 40°30' E 017°09'0 0.0
2017-Sep-17 04:58N 40°30' E 017°09'0 0.0
2017-Sep-17 04:28N 40°30' E 017°09'0 0.0
2017-Sep-17 03:58N 40°30' E 017°09'0 0.0
2017-Sep-17 03:28N 40°30' E 017°09'0 0.0
2017-Sep-17 02:58N 40°30' E 017°09'0 0.0
2017-Sep-17 02:28N 40°30' E 017°09'0 0.0
2017-Sep-17 01:58N 40°30' E 017°09'0 0.0
2017-Sep-17 01:28N 40°30' E 017°09'0 0.0
2017-Sep-17 00:58N 40°30' E 017°09'0 0.0
2017-Sep-17 00:28N 40°30' E 017°09'0 0.0
2017-Sep-16 23:58N 40°30' E 017°09'0 0.0
2017-Sep-16 23:28N 40°30' E 017°09'0 0.0
2017-Sep-16 22:58N 40°30' E 017°09'0 0.0
2017-Sep-16 22:28N 40°30' E 017°09'0 0.0
2017-Sep-16 21:58N 40°30' E 017°09'0 0.0
2017-Sep-16 21:28N 40°30' E 017°09'0 0.0
2017-Sep-16 20:58N 40°30' E 017°09'0 0.0
2017-Sep-16 20:28N 40°30' E 017°09'0 0.0
2017-Sep-16 19:58N 40°30' E 017°09'0 0.0
2017-Sep-16 19:28N 40°30' E 017°09'0 0.0
2017-Sep-16 18:58N 40°30' E 017°09'0 0.0
2017-Sep-16 18:28N 40°30' E 017°09'0 0.0
2017-Sep-16 17:58N 40°30' E 017°09'0 0.0
2017-Sep-16 17:28N 40°30' E 017°09'0 0.0
2017-Sep-16 16:58N 40°30' E 017°09'0 0.0
2017-Sep-16 16:28N 40°30' E 017°09'0 0.0
2017-Sep-16 15:58N 40°30' E 017°09'0 0.0
2017-Sep-16 15:28N 40°30' E 017°09'0 0.0
2017-Sep-16 14:58N 40°30' E 017°09'0 0.0
2017-Sep-16 14:28N 40°30' E 017°09'0 0.0
2017-Sep-16 13:58N 40°30' E 017°09'0 0.0
2017-Sep-16 13:28N 40°30' E 017°09'0 0.0
2017-Sep-16 12:58N 40°30' E 017°09'0 0.0
2017-Sep-16 12:28N 40°30' E 017°09'0 0.0
2017-Sep-16 11:58N 40°30' E 017°09'0 0.0
2017-Sep-16 11:28N 40°30' E 017°09'0 0.0
2017-Sep-16 10:58N 40°30' E 017°09'0 0.0
2017-Sep-16 10:28N 40°30' E 017°09'0 0.0
2017-Sep-16 09:58N 40°30' E 017°09'0 0.0
2017-Sep-16 09:31N 40°30' E 017°09'0 0.0
2017-Sep-16 09:01N 40°30' E 017°09'0 0.0
2017-Sep-16 08:31N 40°30' E 017°09'0 0.0
2017-Sep-16 08:00N 40°30' E 017°09'0 0.0
2017-Sep-16 07:30N 40°30' E 017°09'0 0.0
2017-Sep-16 07:00N 40°30' E 017°09'0 0.0
2017-Sep-16 06:30N 40°30' E 017°09'0 0.0
2017-Sep-16 06:00N 40°30' E 017°09'0 0.0
2017-Sep-16 05:30N 40°30' E 017°09'0 0.0
2017-Sep-16 05:00N 40°30' E 017°09'0 0.0
2017-Sep-16 04:30N 40°30' E 017°09'0 0.0
2017-Sep-16 04:00N 40°30' E 017°09'0 0.0
2017-Sep-16 03:30N 40°30' E 017°09'0 0.0
2017-Sep-16 03:00N 40°30' E 017°09'0 0.0
2017-Sep-16 02:30N 40°30' E 017°09'0 0.0
2017-Sep-16 02:00N 40°30' E 017°09'0 0.0
2017-Sep-16 01:30N 40°30' E 017°09'0 0.0
2017-Sep-16 01:00N 40°30' E 017°09'0 0.0
2017-Sep-16 00:30N 40°30' E 017°09'0 0.0
2017-Sep-16 00:00N 40°30' E 017°09'0 0.0
2017-Sep-15 23:30N 40°30' E 017°09'0 0.0
2017-Sep-15 23:00N 40°30' E 017°09'0 0.0
2017-Sep-15 22:30N 40°30' E 017°09'0 0.0
2017-Sep-15 22:00N 40°30' E 017°09'0 0.0
2017-Sep-15 21:30N 40°30' E 017°09'0 0.0
2017-Sep-15 21:00N 40°30' E 017°09'0 0.0
2017-Sep-15 20:30N 40°30' E 017°09'0 0.0
2017-Sep-15 20:00N 40°30' E 017°09'0 0.0
2017-Sep-15 19:30N 40°30' E 017°09'0 0.0
2017-Sep-15 19:00N 40°30' E 017°09'0 0.0
2017-Sep-15 18:30N 40°30' E 017°09'0 0.0
2017-Sep-15 18:00N 40°30' E 017°09'0 0.0
2017-Sep-15 17:30N 40°30' E 017°09'0 0.0
2017-Sep-15 17:00N 40°30' E 017°09'0 0.0
2017-Sep-15 16:30N 40°30' E 017°09'0 0.0
2017-Sep-15 16:00N 40°30' E 017°09'0 0.0
2017-Sep-15 15:30N 40°30' E 017°09'0 0.0
2017-Sep-15 15:00N 40°30' E 017°09'0 0.0
2017-Sep-15 14:30N 40°30' E 017°09'0 0.0
2017-Sep-15 14:00N 40°30' E 017°09'0 0.0
2017-Sep-15 13:30N 40°30' E 017°09'0 0.0
2017-Sep-15 13:00N 40°30' E 017°09'0 0.0
2017-Sep-15 12:30N 40°30' E 017°09'0 0.0
2017-Sep-15 12:00N 40°30' E 017°09'0 0.0
2017-Sep-15 11:30N 40°30' E 017°09'0 0.0
2017-Sep-15 11:00N 40°30' E 017°09'0 0.0
2017-Sep-15 10:30N 40°30' E 017°09'0 0.0
2017-Sep-15 10:00N 40°30' E 017°09'0 0.0
2017-Sep-15 09:30N 40°30' E 017°09'0 0.0
2017-Sep-15 09:00N 40°30' E 017°09'0 0.0
2017-Sep-15 08:30N 40°30' E 017°09'0 0.0
2017-Sep-15 08:00N 40°30' E 017°09'0 0.0
2017-Sep-15 07:30N 40°30' E 017°09'0 0.0
2017-Sep-15 07:00N 40°30' E 017°09'0 0.0
2017-Sep-15 06:30N 40°30' E 017°09'0 0.0
2017-Sep-15 06:00N 40°30' E 017°09'0 0.0
2017-Sep-15 05:30N 40°30' E 017°09'0 0.0
2017-Sep-15 05:00N 40°30' E 017°09'0 0.0
2017-Sep-15 04:30N 40°30' E 017°09'0 0.0
2017-Sep-15 04:00N 40°30' E 017°09'0 0.0
2017-Sep-15 03:30N 40°30' E 017°09'0 0.0
2017-Sep-15 03:00N 40°30' E 017°09'0 0.0
2017-Sep-15 02:30N 40°30' E 017°09'0 0.0
2017-Sep-15 02:00N 40°30' E 017°09'0 0.0
2017-Sep-15 01:30N 40°30' E 017°09'0 0.0
2017-Sep-15 01:00N 40°30' E 017°09'0 0.0
2017-Sep-15 00:29N 40°30' E 017°09'0 0.0
2017-Sep-14 23:59N 40°30' E 017°09'0 0.0
2017-Sep-14 23:29N 40°30' E 017°09'0 0.0
2017-Sep-14 23:00N 40°30' E 017°09'0 0.0
2017-Sep-14 22:29N 40°30' E 017°09'0 0.0
2017-Sep-14 21:59N 40°30' E 017°09'0 0.0
2017-Sep-14 21:29N 40°30' E 017°09'0 0.0
2017-Sep-14 20:59N 40°30' E 017°09'0 0.0
2017-Sep-14 20:29N 40°30' E 017°09'0 0.0
2017-Sep-14 19:59N 40°30' E 017°09'0 0.0
2017-Sep-14 19:29N 40°30' E 017°09'0 0.0
2017-Sep-14 18:59N 40°30' E 017°09'0 0.0
2017-Sep-14 18:29N 40°30' E 017°09'0 0.0
2017-Sep-14 17:59N 40°30' E 017°09'0 0.0
2017-Sep-14 17:23N 40°30' E 017°09'0 0.0
2017-Sep-14 16:59N 40°30' E 017°09'0 0.0
2017-Sep-14 16:29N 40°30' E 017°09'0 0.0
2017-Sep-14 15:59N 40°30' E 017°09'0 0.0
2017-Sep-14 15:29N 40°30' E 017°09'0 0.0
2017-Sep-14 14:59N 40°30' E 017°09'0 0.0
2017-Sep-14 14:29N 40°30' E 017°09'0 0.0
2017-Sep-14 13:59N 40°30' E 017°09'0 0.0
2017-Sep-14 13:29N 40°30' E 017°09'0 0.0
2017-Sep-14 12:59N 40°30' E 017°09'0 0.0
2017-Sep-14 12:29N 40°30' E 017°09'0 0.0
2017-Sep-14 11:59N 40°30' E 017°09'0 0.0
2017-Sep-14 11:29N 40°30' E 017°09'0 0.0
2017-Sep-14 10:50N 40°30' E 017°09'0 0.0
2017-Sep-14 10:29N 40°30' E 017°09'0 0.0
2017-Sep-14 09:56N 40°30' E 017°09'0 0.0
2017-Sep-14 09:29N 40°30' E 017°09'0 0.0
2017-Sep-14 08:59N 40°30' E 017°09'0 0.0
2017-Sep-14 08:29N 40°30' E 017°09'0 0.0
2017-Sep-14 07:59N 40°30' E 017°09'0 0.0
2017-Sep-14 07:29N 40°30' E 017°09'0 0.0
2017-Sep-14 06:59N 40°30' E 017°09'0 0.0
2017-Sep-14 06:29N 40°30' E 017°09'0 0.0
2017-Sep-14 05:59N 40°30' E 017°09'0 0.0
2017-Sep-14 05:29N 40°30' E 017°09'0 0.0
2017-Sep-14 04:59N 40°30' E 017°09'0 0.0
2017-Sep-14 04:29N 40°30' E 017°09'0 0.0
2017-Sep-14 03:59N 40°30' E 017°09'0 0.0
2017-Sep-14 03:29N 40°30' E 017°09'0 0.0
2017-Sep-14 02:59N 40°30' E 017°09'0 0.0
2017-Sep-14 02:29N 40°30' E 017°09'0 0.0
2017-Sep-14 01:59N 40°30' E 017°09'0 0.0
2017-Sep-14 01:29N 40°30' E 017°09'0 0.0
2017-Sep-14 00:59N 40°30' E 017°09'0 0.0
2017-Sep-14 00:29N 40°30' E 017°09'0 0.0
2017-Sep-13 23:59N 40°30' E 017°09'0 0.0
2017-Sep-13 23:29N 40°30' E 017°09'0 0.0
2017-Sep-13 22:59N 40°30' E 017°09'0 0.0
2017-Sep-13 22:29N 40°30' E 017°09'0 0.0
2017-Sep-13 21:59N 40°30' E 017°09'0 0.0
2017-Sep-13 21:29N 40°30' E 017°09'0 0.0
2017-Sep-13 20:59N 40°30' E 017°09'0 0.0
2017-Sep-13 20:29N 40°30' E 017°09'0 0.0
2017-Sep-13 19:59N 40°30' E 017°09'0 0.0
2017-Sep-13 19:29N 40°30' E 017°09'0 0.0
2017-Sep-13 18:59N 40°30' E 017°09'0 0.0
2017-Sep-13 18:29N 40°30' E 017°09'0 0.0
2017-Sep-13 17:59N 40°30' E 017°09'0 0.0
2017-Sep-13 17:29N 40°30' E 017°09'0 0.0
2017-Sep-13 16:59N 40°30' E 017°09'0 0.0
2017-Sep-13 16:29N 40°30' E 017°09'0 0.0
2017-Sep-13 15:59N 40°30' E 017°09'0 0.0
2017-Sep-13 15:28N 40°30' E 017°09'0 0.0
2017-Sep-13 14:58N 40°30' E 017°09'0 0.0
2017-Sep-13 14:28N 40°30' E 017°09'0 0.0
2017-Sep-13 13:58N 40°30' E 017°09'0 0.0
2017-Sep-13 13:28N 40°30' E 017°09'0 0.0
2017-Sep-13 12:58N 40°30' E 017°09'0 0.0
2017-Sep-13 12:28N 40°30' E 017°09'0 0.0
2017-Sep-13 11:58N 40°30' E 017°09'0 0.0
2017-Sep-13 11:28N 40°30' E 017°09'0 0.0
2017-Sep-13 10:58N 40°30' E 017°09'0 0.0
2017-Sep-13 10:28N 40°30' E 017°09'0 0.0
2017-Sep-13 09:58N 40°30' E 017°09'0 0.0
2017-Sep-13 09:28N 40°30' E 017°09'0 0.0
2017-Sep-13 08:58N 40°30' E 017°09'0 0.0
2017-Sep-13 08:28N 40°30' E 017°09'0 0.0
2017-Sep-13 07:58N 40°30' E 017°09'0 0.0
2017-Sep-13 07:28N 40°30' E 017°09'0 0.0
2017-Sep-13 06:58N 40°30' E 017°09'0 0.0
2017-Sep-13 06:28N 40°30' E 017°09'0 0.0
2017-Sep-13 05:58N 40°30' E 017°09'0 0.0
2017-Sep-13 05:28N 40°30' E 017°09'0 0.0
2017-Sep-13 04:55N 40°30' E 017°09'0 0.0
2017-Sep-13 04:28N 40°30' E 017°09'0 0.0
2017-Sep-13 03:58N 40°30' E 017°09'0 0.0
2017-Sep-13 03:28N 40°30' E 017°09'0 0.0
2017-Sep-13 02:55N 40°30' E 017°09'0 0.0
2017-Sep-13 02:28N 40°30' E 017°09'0 0.0
2017-Sep-13 01:58N 40°30' E 017°09'0 0.0
2017-Sep-13 01:28N 40°30' E 017°09'0 0.0
2017-Sep-13 00:58N 40°30' E 017°09'0 0.0
2017-Sep-13 00:19N 40°30' E 017°09'0 0.0
2017-Sep-12 23:58N 40°30' E 017°09'0 0.0
2017-Sep-12 23:25N 40°30' E 017°09'0 0.0
2017-Sep-12 22:49N 40°30' E 017°09'0 0.0
2017-Sep-12 22:28N 40°30' E 017°09'0 0.0
2017-Sep-12 21:40N 40°30' E 017°09'0 0.0
2017-Sep-12 20:34N 40°30' E 017°09'0 0.0
2017-Sep-12 20:13N 40°30' E 017°09'0 0.0
2017-Sep-12 19:58N 40°30' E 017°09'0 0.0
2017-Sep-12 19:19N 40°30' E 017°09'0 0.0
2017-Sep-12 18:46N 40°30' E 017°09'0 0.0
2017-Sep-12 18:28N 40°30' E 017°09'0 0.0
2017-Sep-12 16:25N 40°30' E 017°09'0 0.0
2017-Sep-12 14:25N 40°30' E 017°09'0 0.0
2017-Sep-12 13:43N 40°30' E 017°09'0 0.0
2017-Sep-12 13:25N 40°30' E 017°09'0 0.0
2017-Sep-12 12:55N 40°30' E 017°09'0 0.0
2017-Sep-12 12:25N 40°30' E 017°09'0 0.0
2017-Sep-12 11:55N 40°30' E 017°09'0 0.0
2017-Sep-12 11:25N 40°30' E 017°09'0 0.0
2017-Sep-12 10:55N 40°30' E 017°09'0 0.0
2017-Sep-12 10:28N 40°30' E 017°09'0 0.0
2017-Sep-12 09:52N 40°30' E 017°09'0 0.0
2017-Sep-12 09:25N 40°30' E 017°09'0 0.0
2017-Sep-12 08:55N 40°30' E 017°09'0 0.0
2017-Sep-12 08:31N 40°30' E 017°09'0 0.0
2017-Sep-12 08:01N 40°30' E 017°09'0 0.0
2017-Sep-12 07:30N 40°30' E 017°09'0 0.0
2017-Sep-12 07:00N 40°30' E 017°09'0 0.0
2017-Sep-12 06:30N 40°30' E 017°09'0 0.0
2017-Sep-12 06:01N 40°30' E 017°09'0 0.0
2017-Sep-12 05:30N 40°30' E 017°09'0 0.0
2017-Sep-12 05:00N 40°30' E 017°09'0 0.0
2017-Sep-12 04:30N 40°30' E 017°09'0 0.0
2017-Sep-12 04:00N 40°30' E 017°09'0 0.0
2017-Sep-12 03:30N 40°30' E 017°09'0 0.0
2017-Sep-12 03:00N 40°30' E 017°09'0 0.0
2017-Sep-12 02:30N 40°30' E 017°09'0 0.0
2017-Sep-12 02:00N 40°30' E 017°09'0 0.0
2017-Sep-12 01:30N 40°30' E 017°09'0 0.0
2017-Sep-12 01:00N 40°30' E 017°09'0 0.0
2017-Sep-12 00:30N 40°30' E 017°09'0 0.0
2017-Sep-12 00:00N 40°30' E 017°09'0 0.0
2017-Sep-11 23:30N 40°30' E 017°09'0 0.0
2017-Sep-11 22:57N 40°30' E 017°09'0 0.0
2017-Sep-11 22:24N 40°30' E 017°09'0 0.0
2017-Sep-11 22:00N 40°30' E 017°09'0 0.0
2017-Sep-11 21:30N 40°30' E 017°09'0 0.0
2017-Sep-11 21:00N 40°30' E 017°09'0 0.0
2017-Sep-11 20:24N 40°30' E 017°09'0 0.0
2017-Sep-11 19:54N 40°30' E 017°09'0 0.0
2017-Sep-11 19:30N 40°30' E 017°09'0 0.0
2017-Sep-11 19:00N 40°30' E 017°09'0 0.0
2017-Sep-11 18:27N 40°30' E 017°09'0 0.0
2017-Sep-11 17:51N 40°30' E 017°09'0 0.0
2017-Sep-11 17:24N 40°30' E 017°09'0 0.0
2017-Sep-11 16:54N 40°30' E 017°09'0 0.0
2017-Sep-11 16:30N 40°30' E 017°09'0 0.0
2017-Sep-11 16:00N 40°30' E 017°09'0 0.0
2017-Sep-11 15:30N 40°30' E 017°09'0 0.0
2017-Sep-11 15:00N 40°30' E 017°09'0 0.0
2017-Sep-11 14:24N 40°30' E 017°09'0 0.0
2017-Sep-11 14:00N 40°30' E 017°09'0 0.0
2017-Sep-11 13:24N 40°30' E 017°09'0 0.0
2017-Sep-11 13:00N 40°30' E 017°09'0 0.0
2017-Sep-11 12:30N 40°30' E 017°09'0 0.0
2017-Sep-11 12:00N 40°30' E 017°09'0 0.0
2017-Sep-11 11:30N 40°30' E 017°09'0 0.0
2017-Sep-11 11:00N 40°30' E 017°09'0 0.0
2017-Sep-11 10:30N 40°30' E 017°09'0 0.0
2017-Sep-11 10:00N 40°30' E 017°09'0 0.0
2017-Sep-11 09:30N 40°30' E 017°09'0 0.0
2017-Sep-11 09:00N 40°30' E 017°09'0 0.0
2017-Sep-11 08:30N 40°30' E 017°09'0 0.0
2017-Sep-11 08:00N 40°30' E 017°09'0 0.0
2017-Sep-11 07:30N 40°30' E 017°09'0 0.0
2017-Sep-11 07:00N 40°30' E 017°09'0 0.0
2017-Sep-11 06:30N 40°30' E 017°09'0 0.0
2017-Sep-11 06:00N 40°30' E 017°09'0 0.0
2017-Sep-11 05:30N 40°30' E 017°09'0 0.0
2017-Sep-11 05:00N 40°30' E 017°09'0 0.0
2017-Sep-11 04:30N 40°30' E 017°09'0 0.0
2017-Sep-11 03:57N 40°30' E 017°09'0 0.0
2017-Sep-11 03:30N 40°30' E 017°09'0 0.0
2017-Sep-11 03:00N 40°30' E 017°09'0 0.0
2017-Sep-11 02:30N 40°30' E 017°09'0 0.0
2017-Sep-11 01:57N 40°30' E 017°09'0 0.0
2017-Sep-11 01:30N 40°30' E 017°09'0 0.0
2017-Sep-11 01:00N 40°30' E 017°09'0 0.0
2017-Sep-11 00:30N 40°30' E 017°09'0 0.0
2017-Sep-11 00:00N 40°30' E 017°09'0 0.0
2017-Sep-10 23:30N 40°30' E 017°09'0 0.0
2017-Sep-10 22:59N 40°30' E 017°09'0 0.0
2017-Sep-10 22:29N 40°30' E 017°09'0 0.0
2017-Sep-10 21:59N 40°30' E 017°09'0 0.0
2017-Sep-10 21:29N 40°30' E 017°09'0 0.0
2017-Sep-10 20:59N 40°30' E 017°09'0 0.0
2017-Sep-10 20:29N 40°30' E 017°09'0 0.0
2017-Sep-10 19:59N 40°30' E 017°09'0 0.0
2017-Sep-10 19:29N 40°30' E 017°09'0 0.0
2017-Sep-10 18:59N 40°30' E 017°09'0 0.0
2017-Sep-10 18:26N 40°30' E 017°09'0 0.0
2017-Sep-10 17:59N 40°30' E 017°09'0 0.0
2017-Sep-10 17:29N 40°30' E 017°09'0 0.0
2017-Sep-10 16:59N 40°30' E 017°09'0 0.0
2017-Sep-10 16:29N 40°30' E 017°09'0 0.0
2017-Sep-10 15:59N 40°30' E 017°09'0 0.0
2017-Sep-10 15:29N 40°30' E 017°09'0 0.0
2017-Sep-10 14:59N 40°30' E 017°09'0 0.0
2017-Sep-10 13:59N 40°30' E 017°09'0 0.0
2017-Sep-10 13:29N 40°30' E 017°09'0 0.0
2017-Sep-10 12:59N 40°30' E 017°09'0 0.0
2017-Sep-10 12:29N 40°30' E 017°09'0 0.0
2017-Sep-10 11:59N 40°30' E 017°09'0 0.0
2017-Sep-10 11:29N 40°30' E 017°09'0 0.0
2017-Sep-10 10:59N 40°30' E 017°09'0 0.0
2017-Sep-10 10:29N 40°30' E 017°09'0 0.0
2017-Sep-10 09:59N 40°30' E 017°09'0 0.0
2017-Sep-10 09:29N 40°30' E 017°09'0 0.0
2017-Sep-10 08:59N 40°30' E 017°09'0 0.0
2017-Sep-10 08:29N 40°30' E 017°09'0 0.0
2017-Sep-10 07:59N 40°30' E 017°09'0 0.0
2017-Sep-10 07:29N 40°30' E 017°09'0 0.0
2017-Sep-10 06:59N 40°30' E 017°09'0 0.0
2017-Sep-10 06:29N 40°30' E 017°09'0 0.0
2017-Sep-10 05:59N 40°30' E 017°09'0 0.0
2017-Sep-10 05:29N 40°30' E 017°09'0 0.0
2017-Sep-10 04:59N 40°30' E 017°09'0 0.0
2017-Sep-10 04:29N 40°30' E 017°09'0 0.0
2017-Sep-10 03:59N 40°30' E 017°09'0 0.0
2017-Sep-10 03:29N 40°30' E 017°09'  

Dump ship's entire track history